createdAt,value
2017-12-31T00:00:00.447Z,2.80
2017-12-31T00:02:30.382Z,3.53
2017-12-31T00:05:00.263Z,5.50
2017-12-31T00:07:30.314Z,3.90
2017-12-31T00:10:00.267Z,3.53
2017-12-31T00:12:30.736Z,3.90
2017-12-31T00:15:00.681Z,3.60
2017-12-31T00:17:31.000Z,4.23
2017-12-31T00:20:00.929Z,2.50
2017-12-31T00:22:30.958Z,3.00
2017-12-31T00:25:00.871Z,3.30
2017-12-31T00:27:31.656Z,4.03
2017-12-31T00:30:01.536Z,3.70
2017-12-31T00:32:31.446Z,4.40
2017-12-31T00:35:01.334Z,5.20
2017-12-31T00:37:31.324Z,5.23
2017-12-31T00:40:01.231Z,5.50
2017-12-31T00:42:31.200Z,4.10
2017-12-31T00:45:01.069Z,4.00
2017-12-31T00:47:31.033Z,4.40
2017-12-31T00:50:00.927Z,4.90
2017-12-31T00:52:30.856Z,4.40
2017-12-31T00:55:00.869Z,4.47
2017-12-31T00:57:30.807Z,5.30
2017-12-31T01:00:00.802Z,4.70
2017-12-31T01:02:30.684Z,5.30
2017-12-31T01:05:00.629Z,6.10
2017-12-31T01:07:30.510Z,6.17
2017-12-31T01:10:00.522Z,4.57
2017-12-31T01:12:30.398Z,4.03
2017-12-31T01:15:00.314Z,4.83
2017-12-31T01:17:30.212Z,4.43
2017-12-31T01:20:00.144Z,5.40
2017-12-31T01:22:30.195Z,4.70
2017-12-31T01:25:00.100Z,4.90
2017-12-31T01:27:30.016Z,5.93
2017-12-31T01:29:59.961Z,4.87
2017-12-31T01:32:29.838Z,4.27
2017-12-31T01:34:59.753Z,5.37
2017-12-31T01:37:29.634Z,4.57
2017-12-31T01:39:59.540Z,5.70
2017-12-31T01:42:29.451Z,4.17
2017-12-31T01:44:59.355Z,4.40
2017-12-31T01:47:29.226Z,4.03
2017-12-31T01:49:59.116Z,4.53
2017-12-31T01:52:29.015Z,5.70
2017-12-31T01:54:58.976Z,4.73
2017-12-31T01:57:29.319Z,4.53
2017-12-31T01:59:59.203Z,5.50
2017-12-31T02:02:29.502Z,4.97
2017-12-31T02:04:59.388Z,6.27
2017-12-31T02:07:29.290Z,4.20
2017-12-31T02:09:59.166Z,5.93
2017-12-31T02:12:29.327Z,4.97
2017-12-31T02:14:59.216Z,3.90
2017-12-31T02:17:29.126Z,5.50
2017-12-31T02:19:59.095Z,5.10
2017-12-31T02:22:29.022Z,5.07
2017-12-31T02:24:58.913Z,6.60
2017-12-31T02:27:28.812Z,3.70
2017-12-31T02:29:58.763Z,4.70
2017-12-31T02:32:28.656Z,4.63
2017-12-31T02:34:58.560Z,5.33
2017-12-31T02:37:28.453Z,4.43
2017-12-31T02:39:58.670Z,4.37
2017-12-31T02:42:28.560Z,3.90
2017-12-31T02:44:58.834Z,4.70
2017-12-31T02:47:28.709Z,5.13
2017-12-31T02:49:58.942Z,5.80
2017-12-31T02:52:28.837Z,5.37
2017-12-31T02:54:58.828Z,5.17
2017-12-31T02:57:28.724Z,4.07
2017-12-31T02:59:58.621Z,6.60
2017-12-31T03:02:28.526Z,4.83
2017-12-31T03:04:58.402Z,4.60
2017-12-31T03:07:28.326Z,4.10
2017-12-31T03:09:58.199Z,4.63
2017-12-31T03:12:28.103Z,4.57
2017-12-31T03:14:58.091Z,5.00
2017-12-31T03:17:28.039Z,5.47
2017-12-31T03:19:57.970Z,5.20
2017-12-31T03:22:27.884Z,5.43
2017-12-31T03:24:57.830Z,3.83
2017-12-31T03:27:27.703Z,4.07
2017-12-31T03:29:57.592Z,5.40
2017-12-31T03:32:27.477Z,5.23
2017-12-31T03:34:57.700Z,5.00
2017-12-31T03:37:27.611Z,4.00
2017-12-31T03:39:57.818Z,3.70
2017-12-31T03:42:27.697Z,3.80
2017-12-31T03:44:57.594Z,4.40
2017-12-31T03:47:27.494Z,5.60
2017-12-31T03:49:57.774Z,4.57
2017-12-31T03:52:27.653Z,5.47
2017-12-31T03:54:58.013Z,4.73
2017-12-31T03:57:27.906Z,4.70
2017-12-31T03:59:57.806Z,4.57
2017-12-31T04:02:27.749Z,4.90
2017-12-31T04:04:57.979Z,4.50
2017-12-31T04:07:27.867Z,5.60
2017-12-31T04:09:57.781Z,5.27
2017-12-31T04:12:27.662Z,4.70
2017-12-31T04:14:57.573Z,4.07
2017-12-31T04:17:27.522Z,7.20
2017-12-31T04:19:57.772Z,5.83
2017-12-31T04:22:27.632Z,5.07
2017-12-31T04:24:57.534Z,4.40
2017-12-31T04:27:27.420Z,5.33
2017-12-31T04:29:57.342Z,4.00
2017-12-31T04:32:27.211Z,4.20
2017-12-31T04:34:57.415Z,5.80
2017-12-31T04:37:27.279Z,3.67
2017-12-31T04:39:57.265Z,5.00
2017-12-31T04:42:27.157Z,3.80
2017-12-31T04:44:57.061Z,5.90
2017-12-31T04:47:26.942Z,3.93
2017-12-31T04:49:56.828Z,6.97
2017-12-31T04:52:26.704Z,4.50
2017-12-31T04:54:56.585Z,4.40
2017-12-31T04:57:26.488Z,4.63
2017-12-31T04:59:56.384Z,3.80
2017-12-31T05:02:26.274Z,4.33
2017-12-31T05:04:56.144Z,4.10
2017-12-31T05:07:26.063Z,5.27
2017-12-31T05:09:55.932Z,5.20
2017-12-31T05:12:25.832Z,4.30
2017-12-31T05:14:55.695Z,3.50
2017-12-31T05:17:25.566Z,4.63
2017-12-31T05:19:55.705Z,4.57
2017-12-31T05:22:25.573Z,4.50
2017-12-31T05:24:55.866Z,3.80
2017-12-31T05:27:25.751Z,4.87
2017-12-31T05:29:55.680Z,4.70
2017-12-31T05:32:25.668Z,5.03
2017-12-31T05:34:55.587Z,4.80
2017-12-31T05:37:25.450Z,5.00
2017-12-31T05:39:55.366Z,4.20
2017-12-31T05:42:25.249Z,5.67
2017-12-31T05:44:55.460Z,4.60
2017-12-31T05:47:25.436Z,5.53
2017-12-31T05:49:55.311Z,5.77
2017-12-31T05:52:25.223Z,5.10
2017-12-31T05:54:55.133Z,5.10
2017-12-31T05:57:25.006Z,4.23
2017-12-31T05:59:54.910Z,5.53
2017-12-31T06:02:24.788Z,5.60
2017-12-31T06:04:54.750Z,5.63
2017-12-31T06:07:24.638Z,5.47
2017-12-31T06:09:54.518Z,4.47
2017-12-31T06:12:24.391Z,4.17
2017-12-31T06:14:54.263Z,5.63
2017-12-31T06:17:24.211Z,4.50
2017-12-31T06:19:54.078Z,5.27
2017-12-31T06:22:23.980Z,3.93
2017-12-31T06:24:53.889Z,4.67
2017-12-31T06:27:23.774Z,6.20
2017-12-31T06:29:53.652Z,6.67
2017-12-31T06:32:23.541Z,5.67
2017-12-31T06:34:53.435Z,4.83
2017-12-31T06:37:23.316Z,5.07
2017-12-31T06:39:53.356Z,5.00
2017-12-31T06:42:23.285Z,4.97
2017-12-31T06:44:53.224Z,5.20
2017-12-31T06:47:23.178Z,4.00
2017-12-31T06:49:53.175Z,4.47
2017-12-31T06:52:23.046Z,5.30
2017-12-31T06:54:53.280Z,4.70
2017-12-31T06:57:23.147Z,5.83
2017-12-31T06:59:53.130Z,4.23
2017-12-31T07:02:23.000Z,5.10
2017-12-31T07:04:52.951Z,4.73
2017-12-31T07:07:22.972Z,6.57
2017-12-31T07:09:52.992Z,5.50
2017-12-31T07:12:22.879Z,5.33
2017-12-31T07:14:52.774Z,5.20
2017-12-31T07:17:22.667Z,4.90
2017-12-31T07:19:52.552Z,6.03
2017-12-31T07:22:22.503Z,5.30
2017-12-31T07:24:52.398Z,5.00
2017-12-31T07:27:22.322Z,4.00
2017-12-31T07:29:52.310Z,5.13
2017-12-31T07:32:22.227Z,5.63
2017-12-31T07:34:52.122Z,4.97
2017-12-31T07:37:22.169Z,5.93
2017-12-31T07:39:52.050Z,4.30
2017-12-31T07:42:21.940Z,6.03
2017-12-31T07:44:52.823Z,5.30
2017-12-31T07:47:22.761Z,4.93
2017-12-31T07:49:52.778Z,5.00
2017-12-31T07:52:23.092Z,6.87
2017-12-31T07:54:52.969Z,4.40
2017-12-31T07:57:22.885Z,4.60
2017-12-31T07:59:52.785Z,5.67
2017-12-31T08:02:22.729Z,5.03
2017-12-31T08:04:52.689Z,5.00
2017-12-31T08:07:23.903Z,6.17
2017-12-31T08:09:53.810Z,5.43
2017-12-31T08:12:23.677Z,5.80
2017-12-31T08:14:53.572Z,5.37
2017-12-31T08:17:23.463Z,6.50
2017-12-31T08:19:53.615Z,7.50
2017-12-31T08:22:23.498Z,4.43
2017-12-31T08:24:54.214Z,6.03
2017-12-31T08:27:24.103Z,6.07
2017-12-31T08:29:54.278Z,6.10
2017-12-31T08:32:24.163Z,6.10
2017-12-31T08:34:54.620Z,5.43
2017-12-31T08:37:24.587Z,6.17
2017-12-31T08:39:54.704Z,7.43
2017-12-31T08:42:24.603Z,7.33
2017-12-31T08:44:54.510Z,6.00
2017-12-31T08:47:24.391Z,8.33
2017-12-31T08:49:54.403Z,6.43
2017-12-31T08:52:24.393Z,6.13
2017-12-31T08:54:54.409Z,8.93
2017-12-31T08:57:24.417Z,7.73
2017-12-31T08:59:54.471Z,6.70
2017-12-31T09:02:24.345Z,9.23
2017-12-31T09:04:54.274Z,7.87
2017-12-31T09:07:24.162Z,6.67
2017-12-31T09:09:54.550Z,7.23
2017-12-31T09:12:24.520Z,7.40
2017-12-31T09:14:54.782Z,7.50
2017-12-31T09:17:24.711Z,6.90
2017-12-31T09:19:55.246Z,8.20
2017-12-31T09:22:25.156Z,6.17
2017-12-31T09:24:55.308Z,7.00
2017-12-31T09:27:25.245Z,8.10
2017-12-31T09:29:55.173Z,6.97
2017-12-31T09:32:25.064Z,6.93
2017-12-31T09:34:54.960Z,7.30
2017-12-31T09:37:24.854Z,7.63
2017-12-31T09:39:54.780Z,6.67
2017-12-31T09:42:24.678Z,6.20
2017-12-31T09:44:54.550Z,7.50
2017-12-31T09:47:24.495Z,7.83
2017-12-31T09:49:54.374Z,7.73
2017-12-31T09:52:24.267Z,7.00
2017-12-31T09:54:54.185Z,6.43
2017-12-31T09:57:24.175Z,6.50
2017-12-31T09:59:54.174Z,7.50
2017-12-31T10:02:24.070Z,6.10
2017-12-31T10:04:54.005Z,6.80
2017-12-31T10:07:24.368Z,7.20
2017-12-31T10:09:54.237Z,6.80
2017-12-31T10:12:24.660Z,6.67
2017-12-31T10:14:54.546Z,6.73
2017-12-31T10:17:24.444Z,6.30
2017-12-31T10:19:54.333Z,6.27
2017-12-31T10:22:24.642Z,6.43
2017-12-31T10:24:54.757Z,6.47
2017-12-31T10:27:25.108Z,7.87
2017-12-31T10:29:55.081Z,7.50
2017-12-31T10:32:25.357Z,6.10
2017-12-31T10:34:55.231Z,7.60
2017-12-31T10:37:25.473Z,7.77
2017-12-31T10:39:55.367Z,7.07
2017-12-31T10:42:25.284Z,7.57
2017-12-31T10:44:55.166Z,8.60
2017-12-31T10:47:25.460Z,7.27
2017-12-31T10:49:55.464Z,6.13
2017-12-31T10:52:25.423Z,6.60
2017-12-31T10:54:55.287Z,7.17
2017-12-31T11:00:41.935Z,6.73
2017-12-31T11:03:11.919Z,6.53
2017-12-31T11:05:42.114Z,6.20
2017-12-31T11:08:12.026Z,4.57
2017-12-31T11:10:42.374Z,5.80
2017-12-31T11:13:12.275Z,5.17
2017-12-31T11:15:42.244Z,4.90
2017-12-31T11:18:12.215Z,5.43
2017-12-31T11:20:42.427Z,5.33
2017-12-31T11:23:12.420Z,5.10
2017-12-31T11:25:42.358Z,5.10
2017-12-31T11:28:12.306Z,6.43
2017-12-31T11:30:42.391Z,4.83
2017-12-31T11:33:12.338Z,5.30
2017-12-31T11:35:42.329Z,4.90
2017-12-31T11:38:12.222Z,5.53
2017-12-31T11:40:42.150Z,4.53
2017-12-31T11:43:12.060Z,4.67
2017-12-31T11:45:42.064Z,5.43
2017-12-31T11:48:11.974Z,5.43
2017-12-31T11:50:41.909Z,5.30
2017-12-31T11:53:12.299Z,4.77
2017-12-31T11:55:42.185Z,4.47
2017-12-31T11:58:12.219Z,4.50
2017-12-31T12:00:42.198Z,4.60
2017-12-31T12:03:12.187Z,5.00
2017-12-31T12:05:42.131Z,4.23
2017-12-31T12:08:12.041Z,4.80
2017-12-31T12:10:41.952Z,5.00
2017-12-31T12:13:12.816Z,5.13
2017-12-31T12:15:42.732Z,4.73
2017-12-31T12:18:12.645Z,5.10
2017-12-31T12:20:42.693Z,5.50
2017-12-31T12:23:12.611Z,7.10
2017-12-31T12:25:42.488Z,6.07
2017-12-31T12:28:12.427Z,5.87
2017-12-31T12:30:42.305Z,5.73
2017-12-31T12:33:12.255Z,6.70
2017-12-31T12:35:42.137Z,8.03
2017-12-31T12:38:12.367Z,6.53
2017-12-31T12:40:42.297Z,5.87
2017-12-31T12:43:12.462Z,5.50
2017-12-31T12:49:09.264Z,3.53
2017-12-31T12:51:39.628Z,4.43
2017-12-31T12:54:09.577Z,3.70
2017-12-31T12:56:40.078Z,4.47
2017-12-31T12:59:10.064Z,5.00
2017-12-31T13:01:39.977Z,4.30
2017-12-31T13:04:09.936Z,4.80
2017-12-31T13:06:39.872Z,4.00
2017-12-31T13:09:09.855Z,4.27
2017-12-31T13:11:39.910Z,4.90
2017-12-31T13:14:09.861Z,4.23
2017-12-31T13:16:39.795Z,3.97
2017-12-31T13:19:09.692Z,4.80
2017-12-31T13:21:39.677Z,3.73
2017-12-31T13:24:10.445Z,4.00
2017-12-31T13:26:40.485Z,4.20
2017-12-31T13:29:10.424Z,3.77
2017-12-31T13:31:40.642Z,3.90
2017-12-31T13:34:10.565Z,3.43
2017-12-31T13:36:40.541Z,3.00
2017-12-31T13:39:10.502Z,3.60
2017-12-31T13:41:40.430Z,4.10
2017-12-31T13:44:10.328Z,3.30
2017-12-31T13:46:40.284Z,4.23
2017-12-31T13:49:10.305Z,3.37
2017-12-31T13:51:40.296Z,3.80
2017-12-31T13:54:10.333Z,4.20
2017-12-31T13:56:40.311Z,4.03
2017-12-31T13:59:10.194Z,3.60
2017-12-31T14:01:44.135Z,3.87
2017-12-31T14:04:14.602Z,4.97
2017-12-31T14:06:44.567Z,4.30
2017-12-31T14:09:14.495Z,3.67
2017-12-31T14:11:44.462Z,3.87
2017-12-31T14:14:15.338Z,4.60
2017-12-31T14:16:45.365Z,5.90
2017-12-31T14:19:15.386Z,5.07
2017-12-31T14:21:45.760Z,5.20
2017-12-31T14:24:15.749Z,4.87
2017-12-31T14:26:46.074Z,4.73
2017-12-31T14:29:16.066Z,3.97
2017-12-31T14:31:46.662Z,4.10
2017-12-31T14:34:18.130Z,3.80
2017-12-31T14:36:48.603Z,5.10
2017-12-31T14:39:18.603Z,5.63
2017-12-31T14:41:48.508Z,5.00
2017-12-31T14:44:18.399Z,5.10
2017-12-31T14:46:48.862Z,5.50
2017-12-31T14:49:18.752Z,7.60
2017-12-31T14:51:48.694Z,5.60
2017-12-31T14:54:18.643Z,6.03
2017-12-31T14:56:48.889Z,6.00
2017-12-31T14:59:18.858Z,6.67
2017-12-31T15:01:48.918Z,6.40
2017-12-31T15:04:18.916Z,6.40
2017-12-31T15:06:48.901Z,7.10
2017-12-31T15:09:18.870Z,10.30
2017-12-31T15:11:48.965Z,9.90
2017-12-31T15:14:18.971Z,9.40
2017-12-31T15:16:48.891Z,10.27
2017-12-31T15:19:18.826Z,6.87
2017-12-31T15:21:48.809Z,7.17
2017-12-31T15:24:18.762Z,5.83
2017-12-31T15:26:48.762Z,6.50
2017-12-31T15:29:18.729Z,6.60
2017-12-31T15:31:48.642Z,7.03
2017-12-31T15:34:18.575Z,6.20
2017-12-31T15:36:48.562Z,6.93
2017-12-31T15:39:18.540Z,5.90
2017-12-31T15:41:48.475Z,6.40
2017-12-31T15:44:18.463Z,6.67
2017-12-31T15:46:48.588Z,7.07
2017-12-31T15:49:18.510Z,9.43
2017-12-31T15:51:48.502Z,12.00
2017-12-31T15:54:18.447Z,9.73
2017-12-31T15:56:48.468Z,8.03
2017-12-31T16:02:24.097Z,8.73
2017-12-31T16:04:54.033Z,6.93
2017-12-31T16:07:23.980Z,7.20
2017-12-31T16:09:54.054Z,8.30
2017-12-31T16:12:24.230Z,8.33
2017-12-31T16:14:54.273Z,7.63
2017-12-31T16:17:24.295Z,7.50
2017-12-31T16:19:54.230Z,8.07
2017-12-31T16:22:24.245Z,10.13
2017-12-31T16:24:54.215Z,8.10
2017-12-31T16:27:24.331Z,9.67
2017-12-31T16:29:54.387Z,7.33
2017-12-31T16:32:24.412Z,8.57
2017-12-31T16:34:54.320Z,12.10
2017-12-31T16:37:24.358Z,9.53
2017-12-31T16:39:54.276Z,7.20
2017-12-31T16:42:24.390Z,10.47
2017-12-31T16:44:54.337Z,12.17
2017-12-31T16:47:24.343Z,11.43
2017-12-31T16:49:54.278Z,14.17
2017-12-31T16:52:24.191Z,9.80
2017-12-31T16:54:54.118Z,13.47
2017-12-31T16:57:24.040Z,13.40
2017-12-31T16:59:54.040Z,13.90
2017-12-31T17:02:24.067Z,12.90
2017-12-31T17:04:53.975Z,18.20
2017-12-31T17:07:23.878Z,15.90
2017-12-31T17:09:53.833Z,13.40
2017-12-31T17:12:23.907Z,16.60
2017-12-31T17:14:53.975Z,16.10
2017-12-31T17:17:23.900Z,15.50
2017-12-31T17:19:53.895Z,14.70
2017-12-31T17:22:23.870Z,17.00
2017-12-31T17:24:53.855Z,15.37
2017-12-31T17:27:23.801Z,17.80
2017-12-31T17:29:53.761Z,19.20
2017-12-31T17:32:23.708Z,17.00
2017-12-31T17:34:53.675Z,40.97
2017-12-31T17:37:23.592Z,43.73
2017-12-31T17:39:53.874Z,23.50
2017-12-31T17:42:23.946Z,25.93
2017-12-31T17:44:53.879Z,24.50
2017-12-31T17:47:23.802Z,29.73
2017-12-31T17:49:53.820Z,39.57
2017-12-31T17:52:23.736Z,38.43
2017-12-31T17:54:53.822Z,43.00
2017-12-31T17:57:23.722Z,40.47
2017-12-31T17:59:53.646Z,38.30
2017-12-31T18:02:23.577Z,26.20
2017-12-31T18:04:53.676Z,33.80
2017-12-31T18:07:23.814Z,33.00
2017-12-31T18:09:53.818Z,35.83
2017-12-31T18:12:23.821Z,33.47
2017-12-31T18:14:53.831Z,28.90
2017-12-31T18:17:23.721Z,30.70
2017-12-31T18:19:53.759Z,32.30
2017-12-31T18:22:23.654Z,33.60
2017-12-31T18:24:53.581Z,30.60
2017-12-31T18:27:23.460Z,21.47
2017-12-31T18:29:53.435Z,23.60
2017-12-31T18:32:23.437Z,24.13
2017-12-31T18:34:53.355Z,30.13
2017-12-31T18:37:23.286Z,32.07
2017-12-31T18:39:53.202Z,26.60
2017-12-31T18:42:23.225Z,24.87
2017-12-31T18:44:53.139Z,19.87
2017-12-31T18:47:23.029Z,18.07
2017-12-31T18:49:52.932Z,20.90
2017-12-31T18:52:22.933Z,21.10
2017-12-31T18:54:52.958Z,31.43
2017-12-31T18:57:22.840Z,31.27
2017-12-31T18:59:52.743Z,31.77
2017-12-31T19:02:22.803Z,32.97
2017-12-31T19:04:52.720Z,29.00
2017-12-31T19:07:22.736Z,28.23
2017-12-31T19:09:52.642Z,27.73
2017-12-31T19:12:22.664Z,22.93
2017-12-31T19:14:52.686Z,18.93
2017-12-31T19:17:22.603Z,21.17
2017-12-31T19:19:52.493Z,19.10
2017-12-31T19:22:22.408Z,20.07
2017-12-31T19:24:52.305Z,19.20
2017-12-31T19:27:22.212Z,21.80
2017-12-31T19:29:52.206Z,22.20
2017-12-31T19:32:22.136Z,24.13
2017-12-31T19:37:56.817Z,27.47
2017-12-31T19:40:26.716Z,29.50
2017-12-31T19:42:56.621Z,34.97
2017-12-31T19:45:26.545Z,31.40
2017-12-31T19:47:56.770Z,27.90
2017-12-31T19:50:26.648Z,28.80
2017-12-31T19:52:56.568Z,22.77
2017-12-31T19:55:26.507Z,23.67
2017-12-31T19:57:56.421Z,25.07
2017-12-31T20:00:26.302Z,25.47
2017-12-31T20:02:56.219Z,29.73
2017-12-31T20:05:26.127Z,30.83
2017-12-31T20:07:56.042Z,30.40
2017-12-31T20:10:25.960Z,30.80
2017-12-31T20:12:55.882Z,29.90
2017-12-31T20:15:25.796Z,34.67
2017-12-31T20:17:55.715Z,35.33
2017-12-31T20:20:25.625Z,35.17
2017-12-31T20:22:55.510Z,28.87
2017-12-31T20:25:25.464Z,26.60
2017-12-31T20:27:55.349Z,25.33
2017-12-31T20:30:25.358Z,29.67
2017-12-31T20:32:55.242Z,31.43
2017-12-31T20:35:25.150Z,27.40
2017-12-31T20:37:55.126Z,27.13
2017-12-31T20:40:25.271Z,27.27
2017-12-31T20:42:55.210Z,30.93
2017-12-31T20:45:28.931Z,36.17
2017-12-31T20:47:58.820Z,41.27
2017-12-31T20:50:28.728Z,46.30
2017-12-31T20:52:58.633Z,47.53
2017-12-31T20:55:28.550Z,50.60
2017-12-31T20:57:58.489Z,50.27
2017-12-31T21:00:28.398Z,52.27
2017-12-31T21:02:58.330Z,58.23
2017-12-31T21:05:28.243Z,57.50
2017-12-31T21:07:58.185Z,59.13
2017-12-31T21:10:28.067Z,65.03
2017-12-31T21:12:57.960Z,64.77
2017-12-31T21:15:27.904Z,74.70
2017-12-31T21:17:57.894Z,84.47
2017-12-31T21:20:27.850Z,106.17
2017-12-31T21:22:57.818Z,93.87
2017-12-31T21:25:27.715Z,67.97
2017-12-31T21:27:57.586Z,72.83
2017-12-31T21:30:27.572Z,67.07
2017-12-31T21:32:57.490Z,58.93
2017-12-31T21:35:27.394Z,58.70
2017-12-31T21:37:57.295Z,60.17
2017-12-31T21:40:27.275Z,66.27
2017-12-31T21:42:57.299Z,83.57
2017-12-31T21:45:27.198Z,88.73
2017-12-31T21:47:57.097Z,91.80
2017-12-31T21:50:27.102Z,84.53
2017-12-31T21:52:57.098Z,97.63
2017-12-31T21:55:27.003Z,74.53
2017-12-31T21:57:56.917Z,74.03
2017-12-31T22:00:26.812Z,52.90
2017-12-31T22:02:56.711Z,55.07
2017-12-31T22:05:26.591Z,55.60
2017-12-31T22:07:56.508Z,45.90
2017-12-31T22:10:26.405Z,48.37
2017-12-31T22:12:56.329Z,49.60
2017-12-31T22:15:26.225Z,40.40
2017-12-31T22:17:56.146Z,44.50
2017-12-31T22:20:26.053Z,59.20
2017-12-31T22:22:55.969Z,47.00
2017-12-31T22:25:25.870Z,44.40
2017-12-31T22:27:55.827Z,40.33
2017-12-31T22:30:25.740Z,42.03
2017-12-31T22:32:55.662Z,45.90
2017-12-31T22:35:25.567Z,52.83
2017-12-31T22:37:55.450Z,50.90
2017-12-31T22:40:25.427Z,50.47
2017-12-31T22:42:55.300Z,41.23
2017-12-31T22:45:25.241Z,46.10
2017-12-31T22:47:55.137Z,41.13
2017-12-31T22:50:25.328Z,44.70
2017-12-31T22:52:55.361Z,52.47
2017-12-31T22:55:25.298Z,40.40
2017-12-31T22:57:55.193Z,50.70
2017-12-31T23:00:25.123Z,143.33
2017-12-31T23:02:55.028Z,140.13
2017-12-31T23:05:24.936Z,199.17
2017-12-31T23:07:54.853Z,306.97
2017-12-31T23:10:25.009Z,307.97
2017-12-31T23:12:55.596Z,340.10
2017-12-31T23:15:25.638Z,521.00
2017-12-31T23:21:01.413Z,619.57
2017-12-31T23:23:31.281Z,718.03
2017-12-31T23:26:01.209Z,690.80
2017-12-31T23:28:31.139Z,721.83
2017-12-31T23:31:01.059Z,742.47
2017-12-31T23:33:30.944Z,736.30
2017-12-31T23:36:00.839Z,734.73
2017-12-31T23:38:30.688Z,733.80
2017-12-31T23:41:00.573Z,693.53
2017-12-31T23:43:30.509Z,663.83
2017-12-31T23:46:00.425Z,625.63
2017-12-31T23:48:30.539Z,663.43
2017-12-31T23:51:00.460Z,627.40
2017-12-31T23:56:00.300Z,417.47
2017-12-31T23:58:30.349Z,342.60
